Terminal Aerodrome Forecast
Issued by NWS Hastings, NE

Home | Current Version | Previous Version | Text Only | Print | Product List | Glossary On
Versions: 1 2 3 4 5 6 7 8 9 10 11 12 13 14 15 16 17 18 19 20 21 22 23
000
FTUS45 KGID 252320
TAFEAR
TAF
KEAR 252320Z 2600/2624 19010KT P6SM SCT025 BKN035
     FM260500 VRB06KT P6SM VCTS SCT015 BKN040CB
     FM261300 32010KT P6SM SCT012 BKN035
     FM261800 33012KT P6SM BKN060
      AMD LTD TO CLD VIS AND WIND=

USA.gov is the U.S. government's official web portal to all federal, state and local government web resources and services.